createdAt,value
2018-12-03T16:14:46.421Z,57.50
2018-12-03T16:17:54.479Z,57.70
2018-12-03T16:20:22.007Z,57.80
2018-12-03T16:22:56.550Z,57.70
2018-12-03T16:25:24.049Z,57.60
2018-12-03T16:27:51.537Z,57.50
2018-12-03T16:30:19.042Z,57.80
2018-12-03T16:33:10.957Z,57.80
2018-12-03T16:35:38.484Z,57.60
2018-12-03T16:41:36.121Z,57.40
2018-12-03T16:44:03.625Z,57.40
2018-12-03T16:46:31.116Z,57.40
2018-12-03T16:48:59.778Z,57.40
2018-12-03T16:51:27.463Z,57.50
2018-12-03T16:53:54.957Z,57.40
2018-12-03T16:56:22.497Z,57.50
2018-12-03T16:58:49.988Z,57.60
2018-12-03T17:01:17.491Z,57.50
2018-12-03T17:03:45.006Z,57.70
2018-12-03T17:06:12.502Z,57.70
2018-12-03T17:08:40.002Z,57.50
2018-12-03T17:11:07.506Z,57.60
2018-12-03T17:13:35.037Z,57.30
2018-12-03T17:16:02.531Z,57.70
2018-12-03T17:18:30.042Z,57.80
2018-12-03T17:20:57.531Z,57.50
2018-12-03T17:23:25.148Z,57.60
2018-12-03T17:25:52.813Z,57.70
2018-12-03T17:28:20.307Z,57.70
2018-12-03T17:30:47.829Z,58.00
2018-12-03T17:33:15.357Z,57.90
2018-12-03T17:35:42.860Z,57.90
2018-12-03T17:38:10.364Z,57.80
2018-12-03T17:40:37.869Z,58.00
2018-12-03T17:43:08.425Z,57.80
2018-12-03T17:45:35.934Z,57.70
2018-12-03T17:48:03.511Z,57.60
2018-12-03T17:50:31.061Z,57.50
2018-12-03T17:52:58.564Z,57.70
2018-12-03T17:55:26.073Z,57.20
2018-12-03T17:57:53.579Z,57.10
2018-12-03T18:00:21.092Z,57.00
2018-12-03T18:02:48.653Z,56.90
2018-12-03T18:05:16.193Z,56.90
2018-12-03T18:07:43.694Z,56.90
2018-12-03T18:10:11.206Z,56.80
2018-12-03T18:12:38.699Z,56.90
2018-12-03T18:15:06.256Z,56.70
2018-12-03T18:17:33.763Z,56.70
2018-12-03T18:20:01.308Z,56.80
2018-12-03T18:22:28.885Z,57.40
2018-12-03T18:24:56.394Z,56.90
2018-12-03T18:27:23.901Z,56.90
2018-12-03T18:29:51.398Z,56.70
2018-12-03T18:32:18.906Z,56.90
2018-12-03T18:34:46.402Z,56.80
2018-12-03T18:37:13.900Z,56.90
2018-12-03T18:39:41.402Z,56.90
2018-12-03T18:42:08.907Z,56.90
2018-12-03T18:44:36.397Z,57.00
2018-12-03T18:47:03.905Z,57.00
2018-12-03T18:49:31.399Z,57.00
2018-12-03T18:51:58.893Z,57.20
2018-12-03T18:54:26.397Z,57.80
2018-12-03T18:56:53.899Z,57.10
2018-12-03T18:59:21.414Z,57.00
2018-12-03T19:01:48.910Z,57.00
2018-12-03T19:04:16.398Z,56.90
2018-12-03T19:06:43.897Z,57.00
2018-12-03T19:09:11.423Z,56.80
2018-12-03T19:11:38.921Z,56.80
2018-12-03T19:14:06.410Z,56.70
2018-12-03T19:16:33.933Z,56.80
2018-12-03T19:19:01.433Z,56.80
2018-12-03T19:21:28.922Z,56.70
2018-12-03T19:23:56.439Z,56.70
2018-12-03T19:26:23.947Z,56.70
2018-12-03T19:28:51.442Z,56.90
2018-12-03T19:31:18.962Z,56.60
2018-12-03T19:33:46.466Z,56.90
2018-12-03T19:36:13.971Z,56.90
2018-12-03T19:38:41.501Z,56.80
2018-12-03T19:41:09.006Z,56.90
2018-12-03T19:43:36.517Z,56.90
2018-12-03T19:46:04.034Z,56.70
2018-12-03T19:48:31.528Z,56.70
2018-12-03T19:50:59.036Z,56.60
2018-12-03T19:53:26.549Z,56.60
2018-12-03T19:55:54.055Z,56.50
2018-12-03T19:58:21.565Z,56.50
2018-12-03T20:00:49.114Z,56.50
2018-12-03T20:03:16.609Z,56.90
2018-12-03T20:05:44.121Z,56.50
2018-12-03T20:08:11.626Z,56.60
2018-12-03T20:10:39.145Z,56.60
2018-12-03T20:13:06.654Z,56.60
2018-12-03T20:15:34.164Z,56.70
2018-12-03T20:18:01.662Z,56.70
2018-12-03T20:20:29.494Z,56.90
2018-12-03T20:22:57.004Z,56.90
2018-12-03T20:25:24.512Z,56.80
2018-12-03T20:27:52.134Z,56.90
2018-12-03T20:30:23.579Z,56.70
2018-12-03T20:32:51.076Z,56.60
2018-12-03T20:35:18.719Z,56.50
2018-12-03T20:37:46.300Z,56.90
2018-12-03T20:40:16.037Z,56.70
2018-12-03T20:42:44.176Z,56.90
2018-12-03T20:45:17.282Z,57.30
2018-12-03T20:47:46.006Z,57.30
2018-12-03T20:50:15.332Z,57.30
2018-12-03T20:52:47.260Z,57.10
2018-12-03T20:55:14.538Z,57.30
2018-12-03T20:57:42.058Z,57.30
2018-12-03T21:00:10.466Z,57.40
2018-12-03T21:02:38.067Z,57.30
2018-12-03T21:05:05.780Z,57.30
2018-12-03T21:07:33.281Z,57.40
2018-12-03T21:10:00.787Z,57.40
2018-12-03T21:12:28.287Z,57.30
2018-12-03T21:14:55.806Z,57.30
2018-12-03T21:17:23.515Z,57.40
2018-12-03T21:19:52.503Z,56.90
2018-12-03T21:22:20.279Z,57.40
2018-12-03T21:24:47.953Z,57.40
2018-12-03T21:27:15.732Z,57.50
2018-12-03T21:30:05.467Z,57.30
2018-12-03T21:32:33.514Z,57.40
2018-12-03T21:35:01.148Z,57.50
2018-12-03T21:37:29.023Z,57.40
2018-12-03T21:39:56.516Z,57.10
2018-12-03T21:42:24.005Z,57.30
2018-12-03T21:44:51.544Z,57.30
2018-12-03T21:47:19.056Z,57.30
2018-12-03T21:49:46.552Z,57.30
2018-12-03T21:52:14.050Z,57.30
2018-12-03T21:54:41.544Z,57.30
2018-12-03T21:57:10.864Z,57.50
2018-12-03T21:59:38.556Z,57.30
2018-12-03T22:02:06.054Z,57.50
2018-12-03T22:04:33.553Z,57.90
2018-12-03T22:07:01.051Z,57.80
2018-12-03T22:09:28.552Z,57.70
2018-12-03T22:11:56.049Z,57.80
2018-12-03T22:14:23.553Z,57.70
2018-12-03T22:16:51.114Z,57.80
2018-12-03T22:19:32.448Z,58.00
2018-12-03T22:21:59.940Z,58.10
2018-12-03T22:24:27.466Z,58.10
2018-12-03T22:26:54.970Z,58.10
2018-12-03T22:29:22.480Z,58.20
2018-12-03T22:31:49.976Z,58.20
2018-12-03T22:34:22.882Z,58.20
2018-12-03T22:36:47.009Z,58.30
2018-12-03T22:39:14.511Z,58.30
2018-12-03T22:41:42.018Z,58.30
2018-12-03T22:44:17.355Z,58.30
2018-12-03T22:46:44.877Z,58.30
2018-12-03T22:49:12.379Z,58.40
2018-12-03T22:51:39.870Z,58.30
2018-12-03T22:54:07.379Z,58.40
2018-12-03T22:56:56.880Z,58.50
2018-12-03T22:59:24.390Z,58.50
2018-12-03T23:01:51.902Z,58.50
2018-12-03T23:04:19.390Z,58.50
2018-12-03T23:06:46.893Z,58.50
2018-12-03T23:09:35.947Z,58.60
2018-12-03T23:12:03.450Z,58.50
2018-12-03T23:14:30.943Z,58.50
2018-12-03T23:16:58.901Z,58.60
2018-12-03T23:19:26.403Z,58.50
2018-12-03T23:21:53.897Z,58.70
2018-12-03T23:24:21.390Z,58.60
2018-12-03T23:26:48.895Z,58.60
2018-12-03T23:29:16.389Z,58.50
2018-12-03T23:31:43.896Z,58.60
2018-12-03T23:34:21.654Z,59.00
2018-12-03T23:36:49.729Z,58.60
2018-12-03T23:39:17.281Z,58.70
2018-12-03T23:41:44.791Z,58.70
2018-12-03T23:44:12.332Z,59.30
2018-12-03T23:46:54.291Z,58.70
2018-12-03T23:49:21.778Z,58.80
2018-12-03T23:51:49.276Z,58.80
2018-12-03T23:54:16.787Z,58.90
2018-12-03T23:56:44.282Z,58.90
2018-12-03T23:59:38.677Z,58.90
